sensor_id;sensor_type;location;lat;lon;timestamp;temperature;humidity
36374;DHT22;22399;51.346;12.372;2024-02-28T00:00:19;5.20;99.90
36374;DHT22;22399;51.346;12.372;2024-02-28T00:02:47;5.20;99.90
36374;DHT22;22399;51.346;12.372;2024-02-28T00:05:15;5.20;99.90
36374;DHT22;22399;51.346;12.372;2024-02-28T00:07:43;5.20;99.90
36374;DHT22;22399;51.346;12.372;2024-02-28T00:10:13;5.20;99.90
36374;DHT22;22399;51.346;12.372;2024-02-28T00:12:42;5.30;99.90
36374;DHT22;22399;51.346;12.372;2024-02-28T00:15:11;5.30;99.90
36374;DHT22;22399;51.346;12.372;2024-02-28T00:17:40;5.30;99.90
36374;DHT22;22399;51.346;12.372;2024-02-28T00:20:09;5.30;99.90
36374;DHT22;22399;51.346;12.372;2024-02-28T00:22:38;5.30;99.90
36374;DHT22;22399;51.346;12.372;2024-02-28T00:25:07;5.30;99.90
36374;DHT22;22399;51.346;12.372;2024-02-28T00:27:38;5.30;99.90
36374;DHT22;22399;51.346;12.372;2024-02-28T00:30:09;5.20;99.90
36374;DHT22;22399;51.346;12.372;2024-02-28T00:32:37;5.20;99.90
36374;DHT22;22399;51.346;12.372;2024-02-28T00:35:07;5.20;99.90
36374;DHT22;22399;51.346;12.372;2024-02-28T00:37:36;5.20;99.90
36374;DHT22;22399;51.346;12.372;2024-02-28T00:40:06;5.20;99.90
36374;DHT22;22399;51.346;12.372;2024-02-28T00:42:36;5.20;99.90
36374;DHT22;22399;51.346;12.372;2024-02-28T00:45:05;5.30;99.90
36374;DHT22;22399;51.346;12.372;2024-02-28T00:47:35;5.20;99.90
36374;DHT22;22399;51.346;12.372;2024-02-28T00:50:05;5.20;99.90
36374;DHT22;22399;51.346;12.372;2024-02-28T00:52:34;5.20;99.90
36374;DHT22;22399;51.346;12.372;2024-02-28T00:55:03;5.20;99.90
36374;DHT22;22399;51.346;12.372;2024-02-28T00:57:31;5.20;99.90
36374;DHT22;22399;51.346;12.372;2024-02-28T01:00:00;5.20;99.90
36374;DHT22;22399;51.346;12.372;2024-02-28T01:02:28;5.20;99.90
36374;DHT22;22399;51.346;12.372;2024-02-28T01:04:58;5.10;99.90
36374;DHT22;22399;51.346;12.372;2024-02-28T01:07:26;5.20;99.90
36374;DHT22;22399;51.346;12.372;2024-02-28T01:09:55;5.10;99.90
36374;DHT22;22399;51.346;12.372;2024-02-28T01:12:23;5.20;99.90
36374;DHT22;22399;51.346;12.372;2024-02-28T01:14:52;5.20;99.90
36374;DHT22;22399;51.346;12.372;2024-02-28T01:17:20;5.20;99.90
36374;DHT22;22399;51.346;12.372;2024-02-28T01:19:49;5.20;99.90
36374;DHT22;22399;51.346;12.372;2024-02-28T01:22:18;5.20;99.90
36374;DHT22;22399;51.346;12.372;2024-02-28T01:24:47;5.20;99.90
36374;DHT22;22399;51.346;12.372;2024-02-28T01:27:15;5.20;99.90
36374;DHT22;22399;51.346;12.372;2024-02-28T01:29:43;5.20;99.90
36374;DHT22;22399;51.346;12.372;2024-02-28T01:32:11;5.20;99.90
36374;DHT22;22399;51.346;12.372;2024-02-28T01:34:40;5.20;99.90
36374;DHT22;22399;51.346;12.372;2024-02-28T01:37:08;5.20;99.90
36374;DHT22;22399;51.346;12.372;2024-02-28T01:39:38;5.20;99.90
36374;DHT22;22399;51.346;12.372;2024-02-28T01:42:06;5.30;99.90
36374;DHT22;22399;51.346;12.372;2024-02-28T01:44:41;5.30;99.90
36374;DHT22;22399;51.346;12.372;2024-02-28T01:47:11;5.30;99.90
36374;DHT22;22399;51.346;12.372;2024-02-28T01:49:41;5.30;99.90
36374;DHT22;22399;51.346;12.372;2024-02-28T01:52:10;5.40;99.90
36374;DHT22;22399;51.346;12.372;2024-02-28T01:54:41;5.40;99.90
36374;DHT22;22399;51.346;12.372;2024-02-28T01:57:10;5.40;99.90
36374;DHT22;22399;51.346;12.372;2024-02-28T01:59:39;5.40;99.90
36374;DHT22;22399;51.346;12.372;2024-02-28T02:02:09;5.40;99.90
36374;DHT22;22399;51.346;12.372;2024-02-28T02:04:37;5.40;99.90
36374;DHT22;22399;51.346;12.372;2024-02-28T02:07:06;5.40;99.90
36374;DHT22;22399;51.346;12.372;2024-02-28T02:09:35;5.30;99.90
36374;DHT22;22399;51.346;12.372;2024-02-28T02:12:06;5.40;99.90
36374;DHT22;22399;51.346;12.372;2024-02-28T02:14:35;5.30;99.90
36374;DHT22;22399;51.346;12.372;2024-02-28T02:17:03;5.40;99.90
36374;DHT22;22399;51.346;12.372;2024-02-28T02:19:32;5.40;99.90
36374;DHT22;22399;51.346;12.372;2024-02-28T02:22:02;5.40;99.90
36374;DHT22;22399;51.346;12.372;2024-02-28T02:24:32;5.30;99.90
36374;DHT22;22399;51.346;12.372;2024-02-28T02:27:02;5.40;99.90
36374;DHT22;22399;51.346;12.372;2024-02-28T02:29:32;5.30;99.90
36374;DHT22;22399;51.346;12.372;2024-02-28T02:32:00;5.40;99.90
36374;DHT22;22399;51.346;12.372;2024-02-28T02:34:28;5.40;99.90
36374;DHT22;22399;51.346;12.372;2024-02-28T02:36:57;5.40;99.90
36374;DHT22;22399;51.346;12.372;2024-02-28T02:39:25;5.40;99.90
36374;DHT22;22399;51.346;12.372;2024-02-28T02:41:55;5.40;99.90
36374;DHT22;22399;51.346;12.372;2024-02-28T02:44:23;5.40;99.90
36374;DHT22;22399;51.346;12.372;2024-02-28T02:46:52;5.30;99.90
36374;DHT22;22399;51.346;12.372;2024-02-28T02:49:21;5.30;99.90
36374;DHT22;22399;51.346;12.372;2024-02-28T02:51:49;5.30;99.90
36374;DHT22;22399;51.346;12.372;2024-02-28T02:54:18;5.30;99.90
36374;DHT22;22399;51.346;12.372;2024-02-28T02:56:46;5.20;99.90
36374;DHT22;22399;51.346;12.372;2024-02-28T02:59:16;5.20;99.90
36374;DHT22;22399;51.346;12.372;2024-02-28T03:01:48;5.30;99.90
36374;DHT22;22399;51.346;12.372;2024-02-28T03:04:18;5.30;99.90
36374;DHT22;22399;51.346;12.372;2024-02-28T03:06:46;5.30;99.90
36374;DHT22;22399;51.346;12.372;2024-02-28T03:09:15;5.20;99.90
36374;DHT22;22399;51.346;12.372;2024-02-28T03:11:43;5.20;99.90
36374;DHT22;22399;51.346;12.372;2024-02-28T03:14:11;5.20;99.90
36374;DHT22;22399;51.346;12.372;2024-02-28T03:16:42;5.20;99.90
36374;DHT22;22399;51.346;12.372;2024-02-28T03:19:11;5.10;99.90
36374;DHT22;22399;51.346;12.372;2024-02-28T03:21:40;5.10;99.90
36374;DHT22;22399;51.346;12.372;2024-02-28T03:24:08;5.10;99.90
36374;DHT22;22399;51.346;12.372;2024-02-28T03:26:36;5.10;99.90
36374;DHT22;22399;51.346;12.372;2024-02-28T03:29:05;5.00;99.90
36374;DHT22;22399;51.346;12.372;2024-02-28T03:31:34;5.00;99.90
36374;DHT22;22399;51.346;12.372;2024-02-28T03:34:03;5.00;99.90
36374;DHT22;22399;51.346;12.372;2024-02-28T03:36:32;5.00;99.90
36374;DHT22;22399;51.346;12.372;2024-02-28T03:39:01;5.00;99.90
36374;DHT22;22399;51.346;12.372;2024-02-28T03:41:29;5.00;99.90
36374;DHT22;22399;51.346;12.372;2024-02-28T03:43:58;5.00;99.90
36374;DHT22;22399;51.346;12.372;2024-02-28T03:46:26;4.90;99.90
36374;DHT22;22399;51.346;12.372;2024-02-28T03:48:54;4.90;99.90
36374;DHT22;22399;51.346;12.372;2024-02-28T03:51:24;5.00;99.90
36374;DHT22;22399;51.346;12.372;2024-02-28T03:53:52;4.90;99.90
36374;DHT22;22399;51.346;12.372;2024-02-28T03:56:24;4.90;99.90
36374;DHT22;22399;51.346;12.372;2024-02-28T03:58:53;4.90;99.90
36374;DHT22;22399;51.346;12.372;2024-02-28T04:01:21;4.80;99.90
36374;DHT22;22399;51.346;12.372;2024-02-28T04:03:49;4.80;99.90
36374;DHT22;22399;51.346;12.372;2024-02-28T04:06:18;4.90;99.90
36374;DHT22;22399;51.346;12.372;2024-02-28T04:08:48;4.80;99.90
36374;DHT22;22399;51.346;12.372;2024-02-28T04:11:16;4.90;99.90
36374;DHT22;22399;51.346;12.372;2024-02-28T04:13:44;4.90;99.90
36374;DHT22;22399;51.346;12.372;2024-02-28T04:16:13;4.90;99.90
36374;DHT22;22399;51.346;12.372;2024-02-28T04:18:41;4.80;99.90
36374;DHT22;22399;51.346;12.372;2024-02-28T04:21:10;4.80;99.90
36374;DHT22;22399;51.346;12.372;2024-02-28T04:23:38;4.80;99.90
36374;DHT22;22399;51.346;12.372;2024-02-28T04:26:10;4.80;99.90
36374;DHT22;22399;51.346;12.372;2024-02-28T04:28:38;4.80;99.90
36374;DHT22;22399;51.346;12.372;2024-02-28T04:31:06;4.70;99.90
36374;DHT22;22399;51.346;12.372;2024-02-28T04:33:36;4.70;99.90
36374;DHT22;22399;51.346;12.372;2024-02-28T04:36:05;4.70;99.90
36374;DHT22;22399;51.346;12.372;2024-02-28T04:38:33;4.70;99.90
36374;DHT22;22399;51.346;12.372;2024-02-28T04:41:02;4.70;99.90
36374;DHT22;22399;51.346;12.372;2024-02-28T04:43:32;4.70;99.90
36374;DHT22;22399;51.346;12.372;2024-02-28T04:46:01;4.70;99.90
36374;DHT22;22399;51.346;12.372;2024-02-28T04:48:30;4.70;99.90
36374;DHT22;22399;51.346;12.372;2024-02-28T04:51:00;4.70;99.90
36374;DHT22;22399;51.346;12.372;2024-02-28T04:53:29;4.70;99.90
36374;DHT22;22399;51.346;12.372;2024-02-28T04:55:57;4.70;99.90
36374;DHT22;22399;51.346;12.372;2024-02-28T04:58:25;4.70;99.90
36374;DHT22;22399;51.346;12.372;2024-02-28T05:00:55;4.70;99.90
36374;DHT22;22399;51.346;12.372;2024-02-28T05:03:24;4.70;99.90
36374;DHT22;22399;51.346;12.372;2024-02-28T05:05:52;4.70;99.90
36374;DHT22;22399;51.346;12.372;2024-02-28T05:08:21;4.70;99.90
36374;DHT22;22399;51.346;12.372;2024-02-28T05:10:49;4.70;99.90
36374;DHT22;22399;51.346;12.372;2024-02-28T05:13:19;4.70;99.90
36374;DHT22;22399;51.346;12.372;2024-02-28T05:15:49;4.70;99.90
36374;DHT22;22399;51.346;12.372;2024-02-28T05:18:19;4.70;99.90
36374;DHT22;22399;51.346;12.372;2024-02-28T05:20:48;4.60;99.90
36374;DHT22;22399;51.346;12.372;2024-02-28T05:23:16;4.60;99.90
36374;DHT22;22399;51.346;12.372;2024-02-28T05:25:46;4.60;99.90
36374;DHT22;22399;51.346;12.372;2024-02-28T05:28:14;4.60;99.90
36374;DHT22;22399;51.346;12.372;2024-02-28T05:30:43;4.60;99.90
36374;DHT22;22399;51.346;12.372;2024-02-28T05:33:15;4.60;99.90
36374;DHT22;22399;51.346;12.372;2024-02-28T05:35:46;4.60;99.90
36374;DHT22;22399;51.346;12.372;2024-02-28T05:38:14;4.60;99.90
36374;DHT22;22399;51.346;12.372;2024-02-28T05:40:43;4.60;99.90
36374;DHT22;22399;51.346;12.372;2024-02-28T05:43:11;4.60;99.90
36374;DHT22;22399;51.346;12.372;2024-02-28T05:45:39;4.60;99.90
36374;DHT22;22399;51.346;12.372;2024-02-28T05:48:08;4.60;99.90
36374;DHT22;22399;51.346;12.372;2024-02-28T05:50:36;4.60;99.90
36374;DHT22;22399;51.346;12.372;2024-02-28T05:53:06;4.60;99.90
36374;DHT22;22399;51.346;12.372;2024-02-28T05:55:35;4.70;99.90
36374;DHT22;22399;51.346;12.372;2024-02-28T05:58:03;4.70;99.90
36374;DHT22;22399;51.346;12.372;2024-02-28T06:00:32;4.60;99.90
36374;DHT22;22399;51.346;12.372;2024-02-28T06:03:02;4.70;99.90
36374;DHT22;22399;51.346;12.372;2024-02-28T06:05:30;4.70;99.90
36374;DHT22;22399;51.346;12.372;2024-02-28T06:07:58;4.60;99.90
36374;DHT22;22399;51.346;12.372;2024-02-28T06:10:28;4.60;99.90
36374;DHT22;22399;51.346;12.372;2024-02-28T06:12:57;4.60;99.90
36374;DHT22;22399;51.346;12.372;2024-02-28T06:15:25;4.60;99.90
36374;DHT22;22399;51.346;12.372;2024-02-28T06:17:56;4.50;99.90
36374;DHT22;22399;51.346;12.372;2024-02-28T06:20:24;4.50;99.90
36374;DHT22;22399;51.346;12.372;2024-02-28T06:22:53;4.50;99.90
36374;DHT22;22399;51.346;12.372;2024-02-28T06:25:21;4.50;99.90
36374;DHT22;22399;51.346;12.372;2024-02-28T06:27:52;4.50;99.90
36374;DHT22;22399;51.346;12.372;2024-02-28T06:30:20;4.50;99.90
36374;DHT22;22399;51.346;12.372;2024-02-28T06:32:48;4.50;99.90
36374;DHT22;22399;51.346;12.372;2024-02-28T06:35:17;4.60;99.90
36374;DHT22;22399;51.346;12.372;2024-02-28T06:37:46;4.60;99.90
36374;DHT22;22399;51.346;12.372;2024-02-28T06:40:17;4.50;99.90
36374;DHT22;22399;51.346;12.372;2024-02-28T06:42:45;4.40;99.90
36374;DHT22;22399;51.346;12.372;2024-02-28T06:45:15;4.40;99.90
36374;DHT22;22399;51.346;12.372;2024-02-28T06:47:44;4.40;99.90
36374;DHT22;22399;51.346;12.372;2024-02-28T06:50:13;4.40;99.90
36374;DHT22;22399;51.346;12.372;2024-02-28T06:52:41;4.50;99.90
36374;DHT22;22399;51.346;12.372;2024-02-28T06:55:10;4.50;99.90
36374;DHT22;22399;51.346;12.372;2024-02-28T06:57:40;4.50;99.90
36374;DHT22;22399;51.346;12.372;2024-02-28T07:00:10;4.50;99.90
36374;DHT22;22399;51.346;12.372;2024-02-28T07:02:41;4.60;99.90
36374;DHT22;22399;51.346;12.372;2024-02-28T07:05:09;4.60;99.90
36374;DHT22;22399;51.346;12.372;2024-02-28T07:07:38;4.70;99.90
36374;DHT22;22399;51.346;12.372;2024-02-28T07:10:07;4.80;99.90
36374;DHT22;22399;51.346;12.372;2024-02-28T07:12:35;4.70;99.90
36374;DHT22;22399;51.346;12.372;2024-02-28T07:15:05;4.70;99.90
36374;DHT22;22399;51.346;12.372;2024-02-28T07:17:33;4.70;99.90
36374;DHT22;22399;51.346;12.372;2024-02-28T07:20:03;4.70;99.90
36374;DHT22;22399;51.346;12.372;2024-02-28T07:22:32;4.80;99.90
36374;DHT22;22399;51.346;12.372;2024-02-28T07:25:00;4.80;99.90
36374;DHT22;22399;51.346;12.372;2024-02-28T07:27:29;4.90;99.90
36374;DHT22;22399;51.346;12.372;2024-02-28T07:29:57;4.90;99.90
36374;DHT22;22399;51.346;12.372;2024-02-28T07:32:26;4.80;99.90
36374;DHT22;22399;51.346;12.372;2024-02-28T07:34:54;4.90;99.90
36374;DHT22;22399;51.346;12.372;2024-02-28T07:37:23;4.90;99.90
36374;DHT22;22399;51.346;12.372;2024-02-28T07:39:52;4.90;99.90
36374;DHT22;22399;51.346;12.372;2024-02-28T07:42:21;4.80;99.90
36374;DHT22;22399;51.346;12.372;2024-02-28T07:44:49;4.80;99.90
36374;DHT22;22399;51.346;12.372;2024-02-28T07:47:20;4.90;99.90
36374;DHT22;22399;51.346;12.372;2024-02-28T07:49:50;4.90;99.90
36374;DHT22;22399;51.346;12.372;2024-02-28T07:52:18;5.00;99.90
36374;DHT22;22399;51.346;12.372;2024-02-28T07:54:48;5.10;99.90
36374;DHT22;22399;51.346;12.372;2024-02-28T07:57:17;5.10;99.90
36374;DHT22;22399;51.346;12.372;2024-02-28T07:59:45;5.10;99.90
36374;DHT22;22399;51.346;12.372;2024-02-28T08:02:14;5.20;99.90
36374;DHT22;22399;51.346;12.372;2024-02-28T08:04:42;5.30;99.90
36374;DHT22;22399;51.346;12.372;2024-02-28T08:07:11;5.40;99.90
36374;DHT22;22399;51.346;12.372;2024-02-28T08:09:39;5.50;99.90
36374;DHT22;22399;51.346;12.372;2024-02-28T08:12:09;5.60;99.90
36374;DHT22;22399;51.346;12.372;2024-02-28T08:14:38;5.70;99.90
36374;DHT22;22399;51.346;12.372;2024-02-28T08:17:06;5.80;99.90
36374;DHT22;22399;51.346;12.372;2024-02-28T08:19:35;5.90;99.90
36374;DHT22;22399;51.346;12.372;2024-02-28T08:22:03;5.90;99.90
36374;DHT22;22399;51.346;12.372;2024-02-28T08:24:32;6.10;99.90
36374;DHT22;22399;51.346;12.372;2024-02-28T08:27:01;6.20;99.90
36374;DHT22;22399;51.346;12.372;2024-02-28T08:29:30;6.50;99.90
36374;DHT22;22399;51.346;12.372;2024-02-28T08:31:59;6.70;99.90
36374;DHT22;22399;51.346;12.372;2024-02-28T08:34:28;6.80;99.90
36374;DHT22;22399;51.346;12.372;2024-02-28T08:36:56;6.90;99.90
36374;DHT22;22399;51.346;12.372;2024-02-28T08:39:25;7.10;99.90
36374;DHT22;22399;51.346;12.372;2024-02-28T08:41:53;7.60;99.90
36374;DHT22;22399;51.346;12.372;2024-02-28T08:44:22;7.80;99.90
36374;DHT22;22399;51.346;12.372;2024-02-28T08:46:51;8.00;99.90
36374;DHT22;22399;51.346;12.372;2024-02-28T08:49:19;8.20;99.90
36374;DHT22;22399;51.346;12.372;2024-02-28T08:51:48;8.20;99.90
36374;DHT22;22399;51.346;12.372;2024-02-28T08:54:16;8.00;99.90
36374;DHT22;22399;51.346;12.372;2024-02-28T08:56:44;8.00;99.90
36374;DHT22;22399;51.346;12.372;2024-02-28T08:59:22;8.00;99.90
36374;DHT22;22399;51.346;12.372;2024-02-28T09:01:52;8.10;99.90
36374;DHT22;22399;51.346;12.372;2024-02-28T09:04:20;8.30;99.90
36374;DHT22;22399;51.346;12.372;2024-02-28T09:06:49;8.40;99.90
36374;DHT22;22399;51.346;12.372;2024-02-28T09:09:17;8.40;99.90
36374;DHT22;22399;51.346;12.372;2024-02-28T09:11:46;8.50;99.90
36374;DHT22;22399;51.346;12.372;2024-02-28T09:14:14;8.50;99.90
36374;DHT22;22399;51.346;12.372;2024-02-28T09:16:43;8.30;99.90
36374;DHT22;22399;51.346;12.372;2024-02-28T09:19:12;8.00;99.90
36374;DHT22;22399;51.346;12.372;2024-02-28T09:21:41;7.80;99.90
36374;DHT22;22399;51.346;12.372;2024-02-28T09:24:09;7.40;99.90
36374;DHT22;22399;51.346;12.372;2024-02-28T09:26:38;7.10;99.90
36374;DHT22;22399;51.346;12.372;2024-02-28T09:29:07;7.20;99.90
36374;DHT22;22399;51.346;12.372;2024-02-28T09:31:35;7.20;99.90
36374;DHT22;22399;51.346;12.372;2024-02-28T09:34:04;7.20;99.90
36374;DHT22;22399;51.346;12.372;2024-02-28T09:36:41;7.20;99.90
36374;DHT22;22399;51.346;12.372;2024-02-28T09:39:16;7.20;99.90
36374;DHT22;22399;51.346;12.372;2024-02-28T09:41:47;7.20;99.90
36374;DHT22;22399;51.346;12.372;2024-02-28T09:44:17;7.60;99.90
36374;DHT22;22399;51.346;12.372;2024-02-28T09:46:46;8.50;99.90
36374;DHT22;22399;51.346;12.372;2024-02-28T09:49:16;9.30;99.90
36374;DHT22;22399;51.346;12.372;2024-02-28T09:51:48;9.90;99.90
36374;DHT22;22399;51.346;12.372;2024-02-28T09:54:17;10.30;99.90
36374;DHT22;22399;51.346;12.372;2024-02-28T09:56:47;10.60;99.90
36374;DHT22;22399;51.346;12.372;2024-02-28T09:59:18;10.90;99.90
36374;DHT22;22399;51.346;12.372;2024-02-28T10:01:55;11.10;99.90
36374;DHT22;22399;51.346;12.372;2024-02-28T10:04:26;11.30;99.90
36374;DHT22;22399;51.346;12.372;2024-02-28T10:06:57;11.40;99.90
36374;DHT22;22399;51.346;12.372;2024-02-28T10:09:25;11.20;99.90
36374;DHT22;22399;51.346;12.372;2024-02-28T10:11:54;11.20;99.90
36374;DHT22;22399;51.346;12.372;2024-02-28T10:14:22;11.50;99.90
36374;DHT22;22399;51.346;12.372;2024-02-28T10:16:51;11.70;99.90
36374;DHT22;22399;51.346;12.372;2024-02-28T10:19:20;11.80;99.90
36374;DHT22;22399;51.346;12.372;2024-02-28T10:21:49;11.60;99.90
36374;DHT22;22399;51.346;12.372;2024-02-28T10:24:19;11.40;99.90
36374;DHT22;22399;51.346;12.372;2024-02-28T10:26:48;11.30;99.90
36374;DHT22;22399;51.346;12.372;2024-02-28T10:29:22;11.70;99.90
36374;DHT22;22399;51.346;12.372;2024-02-28T10:31:52;12.30;99.90
36374;DHT22;22399;51.346;12.372;2024-02-28T10:34:20;12.70;99.90
36374;DHT22;22399;51.346;12.372;2024-02-28T10:36:49;12.60;99.90
36374;DHT22;22399;51.346;12.372;2024-02-28T10:39:19;12.50;99.90
36374;DHT22;22399;51.346;12.372;2024-02-28T10:41:50;12.40;99.90
36374;DHT22;22399;51.346;12.372;2024-02-28T10:44:20;12.60;99.90
36374;DHT22;22399;51.346;12.372;2024-02-28T10:46:50;12.70;99.90
36374;DHT22;22399;51.346;12.372;2024-02-28T10:49:18;12.80;99.90
36374;DHT22;22399;51.346;12.372;2024-02-28T10:51:49;12.90;99.90
36374;DHT22;22399;51.346;12.372;2024-02-28T10:54:21;12.90;99.90
36374;DHT22;22399;51.346;12.372;2024-02-28T10:56:49;12.60;99.90
36374;DHT22;22399;51.346;12.372;2024-02-28T10:59:20;12.30;99.90
36374;DHT22;22399;51.346;12.372;2024-02-28T11:01:49;11.90;99.90
36374;DHT22;22399;51.346;12.372;2024-02-28T11:04:18;11.60;99.90
36374;DHT22;22399;51.346;12.372;2024-02-28T11:06:48;11.30;99.90
36374;DHT22;22399;51.346;12.372;2024-02-28T11:09:23;11.10;99.90
36374;DHT22;22399;51.346;12.372;2024-02-28T11:11:53;10.80;99.90
36374;DHT22;22399;51.346;12.372;2024-02-28T11:14:22;10.80;99.90
36374;DHT22;22399;51.346;12.372;2024-02-28T11:17:02;10.80;99.90
36374;DHT22;22399;51.346;12.372;2024-02-28T11:19:32;10.90;99.90
36374;DHT22;22399;51.346;12.372;2024-02-28T11:22:04;10.90;99.70
36374;DHT22;22399;51.346;12.372;2024-02-28T11:24:35;10.90;99.20
36374;DHT22;22399;51.346;12.372;2024-02-28T11:27:05;11.10;99.30
36374;DHT22;22399;51.346;12.372;2024-02-28T11:29:34;11.20;99.70
36374;DHT22;22399;51.346;12.372;2024-02-28T11:32:03;11.60;99.10
36374;DHT22;22399;51.346;12.372;2024-02-28T11:34:31;11.50;97.90
36374;DHT22;22399;51.346;12.372;2024-02-28T11:37:00;11.50;97.60
36374;DHT22;22399;51.346;12.372;2024-02-28T11:39:29;11.30;97.10
36374;DHT22;22399;51.346;12.372;2024-02-28T11:42:10;11.20;97.30
36374;DHT22;22399;51.346;12.372;2024-02-28T11:44:40;10.80;97.10
36374;DHT22;22399;51.346;12.372;2024-02-28T11:47:09;10.80;97.60
36374;DHT22;22399;51.346;12.372;2024-02-28T11:49:38;11.20;97.90
36374;DHT22;22399;51.346;12.372;2024-02-28T11:52:06;11.60;97.90
36374;DHT22;22399;51.346;12.372;2024-02-28T11:54:36;11.90;96.80
36374;DHT22;22399;51.346;12.372;2024-02-28T11:57:05;11.90;96.30
36374;DHT22;22399;51.346;12.372;2024-02-28T11:59:36;11.50;95.80
36374;DHT22;22399;51.346;12.372;2024-02-28T12:02:11;11.70;96.30
36374;DHT22;22399;51.346;12.372;2024-02-28T12:04:41;11.80;95.80
36374;DHT22;22399;51.346;12.372;2024-02-28T12:07:09;11.80;95.80
36374;DHT22;22399;51.346;12.372;2024-02-28T12:09:38;12.40;96.40
36374;DHT22;22399;51.346;12.372;2024-02-28T12:12:09;13.00;96.10
36374;DHT22;22399;51.346;12.372;2024-02-28T12:14:38;13.50;95.60
36374;DHT22;22399;51.346;12.372;2024-02-28T12:17:09;13.50;94.90
36374;DHT22;22399;51.346;12.372;2024-02-28T12:19:39;13.40;94.40
36374;DHT22;22399;51.346;12.372;2024-02-28T12:22:07;13.50;94.50
36374;DHT22;22399;51.346;12.372;2024-02-28T12:24:36;13.60;94.40
36374;DHT22;22399;51.346;12.372;2024-02-28T12:27:05;13.70;94.50
36374;DHT22;22399;51.346;12.372;2024-02-28T12:29:33;14.00;94.50
36374;DHT22;22399;51.346;12.372;2024-02-28T12:32:04;14.20;94.30
36374;DHT22;22399;51.346;12.372;2024-02-28T12:34:32;14.40;93.80
36374;DHT22;22399;51.346;12.372;2024-02-28T12:37:00;14.50;93.50
36374;DHT22;22399;51.346;12.372;2024-02-28T12:39:30;14.20;92.70
36374;DHT22;22399;51.346;12.372;2024-02-28T12:42:01;13.60;92.40
36374;DHT22;22399;51.346;12.372;2024-02-28T12:44:29;13.50;92.50
36374;DHT22;22399;51.346;12.372;2024-02-28T12:46:57;12.90;91.60
36374;DHT22;22399;51.346;12.372;2024-02-28T12:49:27;12.80;92.30
36374;DHT22;22399;51.346;12.372;2024-02-28T12:51:55;12.80;92.10
36374;DHT22;22399;51.346;12.372;2024-02-28T12:54:24;13.10;92.70
36374;DHT22;22399;51.346;12.372;2024-02-28T12:56:52;12.90;92.00
36374;DHT22;22399;51.346;12.372;2024-02-28T12:59:21;12.80;92.00
36374;DHT22;22399;51.346;12.372;2024-02-28T13:01:49;13.00;91.80
36374;DHT22;22399;51.346;12.372;2024-02-28T13:04:18;13.10;91.60
36374;DHT22;22399;51.346;12.372;2024-02-28T13:06:47;12.60;91.40
36374;DHT22;22399;51.346;12.372;2024-02-28T13:09:16;12.40;91.40
36374;DHT22;22399;51.346;12.372;2024-02-28T13:11:44;12.70;91.30
36374;DHT22;22399;51.346;12.372;2024-02-28T13:14:13;13.10;91.20
36374;DHT22;22399;51.346;12.372;2024-02-28T13:16:42;13.30;91.10
36374;DHT22;22399;51.346;12.372;2024-02-28T13:19:10;13.40;90.60
36374;DHT22;22399;51.346;12.372;2024-02-28T13:21:40;13.40;90.20
36374;DHT22;22399;51.346;12.372;2024-02-28T13:24:10;13.30;88.90
36374;DHT22;22399;51.346;12.372;2024-02-28T13:26:39;13.10;88.70
36374;DHT22;22399;51.346;12.372;2024-02-28T13:29:08;12.90;87.60
36374;DHT22;22399;51.346;12.372;2024-02-28T13:31:36;12.40;87.80
36374;DHT22;22399;51.346;12.372;2024-02-28T13:34:04;12.20;88.00
36374;DHT22;22399;51.346;12.372;2024-02-28T13:36:33;12.20;88.40
36374;DHT22;22399;51.346;12.372;2024-02-28T13:39:04;12.00;87.60
36374;DHT22;22399;51.346;12.372;2024-02-28T13:41:33;11.90;88.50
36374;DHT22;22399;51.346;12.372;2024-02-28T13:44:02;12.10;88.30
36374;DHT22;22399;51.346;12.372;2024-02-28T13:46:31;12.40;87.80
36374;DHT22;22399;51.346;12.372;2024-02-28T13:48:59;12.60;86.90
36374;DHT22;22399;51.346;12.372;2024-02-28T13:51:28;13.10;86.80
36374;DHT22;22399;51.346;12.372;2024-02-28T13:53:57;13.50;85.60
36374;DHT22;22399;51.346;12.372;2024-02-28T13:56:25;13.70;84.90
36374;DHT22;22399;51.346;12.372;2024-02-28T13:58:55;14.00;84.50
36374;DHT22;22399;51.346;12.372;2024-02-28T14:01:37;14.30;84.30
36374;DHT22;22399;51.346;12.372;2024-02-28T14:04:06;14.70;83.60
36374;DHT22;22399;51.346;12.372;2024-02-28T14:06:34;14.80;82.70
36374;DHT22;22399;51.346;12.372;2024-02-28T14:09:03;15.10;82.20
36374;DHT22;22399;51.346;12.372;2024-02-28T14:11:32;15.20;81.10
36374;DHT22;22399;51.346;12.372;2024-02-28T14:14:02;15.10;80.70
36374;DHT22;22399;51.346;12.372;2024-02-28T14:16:31;14.90;80.10
36374;DHT22;22399;51.346;12.372;2024-02-28T14:19:00;14.50;80.00
36374;DHT22;22399;51.346;12.372;2024-02-28T14:21:29;14.30;79.80
36374;DHT22;22399;51.346;12.372;2024-02-28T14:23:57;14.20;79.70
36374;DHT22;22399;51.346;12.372;2024-02-28T14:26:25;14.20;79.80
36374;DHT22;22399;51.346;12.372;2024-02-28T14:28:54;14.40;79.90
36374;DHT22;22399;51.346;12.372;2024-02-28T14:31:24;14.30;79.50
36374;DHT22;22399;51.346;12.372;2024-02-28T14:33:53;14.50;79.60
36374;DHT22;22399;51.346;12.372;2024-02-28T14:36:22;14.60;78.70
36374;DHT22;22399;51.346;12.372;2024-02-28T14:38:52;14.60;78.20
36374;DHT22;22399;51.346;12.372;2024-02-28T14:41:20;14.70;78.30
36374;DHT22;22399;51.346;12.372;2024-02-28T14:43:49;14.80;77.80
36374;DHT22;22399;51.346;12.372;2024-02-28T14:46:17;14.70;77.80
36374;DHT22;22399;51.346;12.372;2024-02-28T14:48:49;14.70;77.50
36374;DHT22;22399;51.346;12.372;2024-02-28T14:51:19;14.80;77.30
36374;DHT22;22399;51.346;12.372;2024-02-28T14:53:48;14.80;77.10
36374;DHT22;22399;51.346;12.372;2024-02-28T14:56:17;14.80;76.90
36374;DHT22;22399;51.346;12.372;2024-02-28T14:58:49;14.70;76.50
36374;DHT22;22399;51.346;12.372;2024-02-28T15:01:18;14.60;76.60
36374;DHT22;22399;51.346;12.372;2024-02-28T15:03:46;14.60;76.20
36374;DHT22;22399;51.346;12.372;2024-02-28T15:06:19;14.10;76.20
36374;DHT22;22399;51.346;12.372;2024-02-28T15:08:48;13.90;76.20
36374;DHT22;22399;51.346;12.372;2024-02-28T15:11:16;13.30;77.80
36374;DHT22;22399;51.346;12.372;2024-02-28T15:13:46;12.70;79.30
36374;DHT22;22399;51.346;12.372;2024-02-28T15:16:14;12.20;80.30
36374;DHT22;22399;51.346;12.372;2024-02-28T15:18:44;11.80;80.80
36374;DHT22;22399;51.346;12.372;2024-02-28T15:21:12;11.40;81.00
36374;DHT22;22399;51.346;12.372;2024-02-28T15:23:42;11.00;81.60
36374;DHT22;22399;51.346;12.372;2024-02-28T15:26:10;10.60;81.80
36374;DHT22;22399;51.346;12.372;2024-02-28T15:28:39;10.30;82.10
36374;DHT22;22399;51.346;12.372;2024-02-28T15:31:07;10.00;82.30
36374;DHT22;22399;51.346;12.372;2024-02-28T15:33:36;9.60;82.20
36374;DHT22;22399;51.346;12.372;2024-02-28T15:36:04;9.40;82.50